Time;durP1;ratioP1;P1;durP2;ratioP2;P2;SDS_P1;SDS_P2;PMS_P1;PMS_P2;Temp;Humidity;BMP_temperature;BMP_pressure;BME280_temperature;BME280_humidity;BME280_pressure;Samples;Min_cycle;Max_cycle;Signal;HPM_P1;HPM_P2
2023/06/20 00:00:39;;;;;;;23.08;13.82;;;;;;;;;;5037098;28;20052;-80
2023/06/20 00:03:04;;;;;;;20.05;13.07;;;;;;;;;;5036609;28;20477;-81
2023/06/20 00:05:30;;;;;;;20.73;13.80;;;;;;;;;;5037028;28;20041;-81
2023/06/20 00:07:55;;;;;;;18.50;13.88;;;;;;;;;;5036748;28;20037;-81
2023/06/20 00:10:21;;;;;;;23.90;14.02;;;;;;;;;;5037102;28;20036;-81
2023/06/20 00:12:46;;;;;;;23.35;13.23;;;;;;;;;;5037054;28;20029;-81
2023/06/20 00:15:12;;;;;;;18.85;13.45;;;;;;;;;;5035560;28;20443;-81
2023/06/20 00:17:38;;;;;;;25.05;13.30;;;;;;;;;;5036965;28;20021;-81
2023/06/20 00:20:05;;;;;;;21.45;13.82;;;;;;;;;;5036653;28;20079;-81
2023/06/20 00:22:34;;;;;;;20.08;13.38;;;;;;;;;;5036920;28;20437;-81
2023/06/20 00:25:03;;;;;;;20.95;14.00;;;;;;;;;;5036561;28;20026;-81
2023/06/20 00:27:29;;;;;;;21.33;13.82;;;;;;;;;;5002419;28;20474;-80
2023/06/20 00:29:54;;;;;;;16.92;13.25;;;;;;;;;;5036455;28;20029;-81
2023/06/20 00:32:20;;;;;;;20.10;14.57;;;;;;;;;;5036483;28;20021;-82
2023/06/20 00:34:45;;;;;;;21.48;13.80;;;;;;;;;;5036427;28;20022;-81
2023/06/20 00:37:10;;;;;;;20.58;14.10;;;;;;;;;;5036355;28;20470;-81
2023/06/20 00:39:36;;;;;;;22.13;14.35;;;;;;;;;;5036322;28;20431;-81
2023/06/20 00:42:04;;;;;;;21.30;14.48;;;;;;;;;;5036530;28;20115;-81
2023/06/20 00:44:29;;;;;;;27.20;13.75;;;;;;;;;;5035089;28;20022;-81
2023/06/20 00:46:55;;;;;;;21.88;14.73;;;;;;;;;;5035794;28;20030;-82
2023/06/20 00:49:20;;;;;;;24.83;14.32;;;;;;;;;;5018342;28;20116;-81
2023/06/20 00:51:45;;;;;;;23.55;14.75;;;;;;;;;;5035110;28;20095;-81
2023/06/20 00:54:11;;;;;;;23.58;14.32;;;;;;;;;;5036080;28;20412;-81
2023/06/20 00:56:36;;;;;;;22.90;14.57;;;;;;;;;;5036015;28;20021;-81
2023/06/20 00:59:03;;;;;;;27.90;14.90;;;;;;;;;;5034767;28;20032;-82
2023/06/20 01:01:31;;;;;;;21.48;14.93;;;;;;;;;;5035823;28;20049;-82
2023/06/20 01:03:59;;;;;;;20.02;15.10;;;;;;;;;;5036558;28;20053;-81
2023/06/20 01:06:42;;;;;;;19.63;14.38;;;;;;;;;;5018734;28;20638;-82
2023/06/20 01:09:08;;;;;;;24.38;14.98;;;;;;;;;;5018300;28;20365;-82
2023/06/20 01:11:47;;;;;;;20.95;15.02;;;;;;;;;;5035746;28;20120;-81
2023/06/20 01:14:29;;;;;;;23.27;15.23;;;;;;;;;;5034470;28;20123;-82
2023/06/20 01:16:58;;;;;;;20.33;14.75;;;;;;;;;;5034426;28;20129;-82
2023/06/20 01:19:43;;;;;;;18.15;14.02;;;;;;;;;;5034388;28;20025;-81
2023/06/20 01:22:12;;;;;;;21.25;14.75;;;;;;;;;;5035624;28;20456;-81
2023/06/20 01:24:49;;;;;;;20.02;14.73;;;;;;;;;;5034396;28;20033;-81
2023/06/20 01:27:17;;;;;;;21.75;14.88;;;;;;;;;;5001653;28;20071;-81
2023/06/20 01:29:52;;;;;;;20.17;14.85;;;;;;;;;;5017648;28;20128;-81
2023/06/20 01:32:19;;;;;;;21.65;14.15;;;;;;;;;;5017609;28;20026;-81
2023/06/20 01:34:47;;;;;;;24.52;15.68;;;;;;;;;;5017858;28;20038;-82
2023/06/20 01:37:15;;;;;;;20.27;14.52;;;;;;;;;;5017635;28;20037;-81
2023/06/20 01:39:44;;;;;;;24.52;15.43;;;;;;;;;;5017580;28;20087;-82
2023/06/20 01:42:09;;;;;;;21.90;14.90;;;;;;;;;;5017457;28;20065;-81
2023/06/20 01:44:35;;;;;;;21.95;14.52;;;;;;;;;;5017114;28;20025;-81
2023/06/20 01:47:01;;;;;;;23.92;14.13;;;;;;;;;;5017268;28;20532;-81
2023/06/20 01:49:26;;;;;;;20.38;14.40;;;;;;;;;;5017363;28;20076;-81
2023/06/20 01:51:55;;;;;;;23.98;15.55;;;;;;;;;;5017223;28;20065;-81
2023/06/20 01:54:21;;;;;;;23.47;14.57;;;;;;;;;;5034933;28;20033;-81
2023/06/20 01:56:47;;;;;;;22.90;14.18;;;;;;;;;;5033663;28;20111;-81
2023/06/20 01:59:12;;;;;;;19.35;14.15;;;;;;;;;;5033807;28;20405;-82
2023/06/20 02:01:42;;;;;;;23.35;14.65;;;;;;;;;;5016176;28;20128;-81
2023/06/20 02:04:08;;;;;;;21.20;14.77;;;;;;;;;;5017658;28;20036;-81
2023/06/20 02:06:33;;;;;;;20.77;14.85;;;;;;;;;;5016871;28;20120;-82
2023/06/20 02:08:58;;;;;;;22.30;15.00;;;;;;;;;;5016957;28;20387;-82
2023/06/20 02:11:24;;;;;;;25.77;14.77;;;;;;;;;;5033558;28;20055;-81
2023/06/20 02:13:49;;;;;;;25.67;15.63;;;;;;;;;;5033076;28;20021;-82
2023/06/20 02:16:15;;;;;;;20.25;14.55;;;;;;;;;;5034838;28;20032;-82
2023/06/20 02:18:40;;;;;;;22.58;15.35;;;;;;;;;;5016787;28;20029;-81
2023/06/20 02:21:19;;;;;;;26.40;15.07;;;;;;;;;;5034437;28;20049;-81
2023/06/20 02:23:44;;;;;;;26.00;15.38;;;;;;;;;;5016884;28;20116;-81
2023/06/20 02:26:14;;;;;;;23.52;14.85;;;;;;;;;;5016731;28;20053;-81
2023/06/20 02:28:42;;;;;;;23.38;15.18;;;;;;;;;;5032847;28;20033;-82
2023/06/20 02:31:09;;;;;;;21.10;14.57;;;;;;;;;;5034188;28;20033;-81
2023/06/20 02:33:35;;;;;;;21.70;14.38;;;;;;;;;;5033491;28;20055;-81
2023/06/20 02:36:01;;;;;;;26.83;14.50;;;;;;;;;;5032881;28;20025;-81
2023/06/20 02:38:27;;;;;;;27.25;14.10;;;;;;;;;;5032893;28;20026;-81
2023/06/20 02:40:52;;;;;;;26.73;14.70;;;;;;;;;;5032858;28;20021;-81
2023/06/20 02:43:18;;;;;;;22.38;14.07;;;;;;;;;;5016684;28;20025;-81
2023/06/20 02:45:44;;;;;;;23.80;14.35;;;;;;;;;;5032853;28;20120;-81
2023/06/20 02:48:47;;;;;;;22.75;13.43;;;;;;;;;;5016281;28;20119;-81
2023/06/20 02:51:27;;;;;;;25.67;14.13;;;;;;;;;;5016268;28;20029;-81
2023/06/20 02:54:21;;;;;;;19.55;14.02;;;;;;;;;;5016364;28;20109;-80
2023/06/20 02:56:50;;;;;;;20.25;14.13;;;;;;;;;;5032551;28;20025;-80
2023/06/20 02:59:15;;;;;;;23.45;14.40;;;;;;;;;;5032627;28;20065;-81
2023/06/20 03:01:42;;;;;;;24.60;13.80;;;;;;;;;;5016033;28;20079;-81
2023/06/20 03:04:08;;;;;;;21.48;13.90;;;;;;;;;;5016222;28;20034;-81
2023/06/20 03:06:33;;;;;;;19.80;13.15;;;;;;;;;;5032603;28;20147;-80
2023/06/20 03:08:59;;;;;;;20.23;13.85;;;;;;;;;;5033970;28;20091;-80
2023/06/20 03:11:25;;;;;;;22.48;13.63;;;;;;;;;;5017502;28;20029;-81
2023/06/20 03:13:50;;;;;;;23.13;14.63;;;;;;;;;;5025320;28;20121;-80
2023/06/20 03:16:16;;;;;;;19.45;13.43;;;;;;;;;;5040457;28;20132;-80
2023/06/20 03:18:41;;;;;;;27.67;15.00;;;;;;;;;;5041040;28;20459;-80
2023/06/20 03:21:06;;;;;;;24.60;13.57;;;;;;;;;;5041951;28;20447;-81
2023/06/20 03:23:32;;;;;;;23.48;13.82;;;;;;;;;;5040415;28;20116;-80
2023/06/20 03:25:58;;;;;;;19.13;13.25;;;;;;;;;;5039983;28;20082;-80
2023/06/20 03:28:24;;;;;;;20.30;13.15;;;;;;;;;;5021454;28;20045;-79
2023/06/20 03:30:50;;;;;;;21.60;13.02;;;;;;;;;;5022616;28;20132;-79
2023/06/20 03:33:15;;;;;;;18.27;14.07;;;;;;;;;;5039153;28;20036;-79
2023/06/20 03:35:41;;;;;;;20.92;13.80;;;;;;;;;;5040127;28;20060;-82
2023/06/20 03:38:06;;;;;;;20.13;13.73;;;;;;;;;;5040036;28;20030;-82
2023/06/20 03:40:32;;;;;;;22.15;13.68;;;;;;;;;;5021719;28;20045;-82
2023/06/20 03:42:57;;;;;;;20.17;14.38;;;;;;;;;;5040019;28;20033;-82
2023/06/20 03:45:23;;;;;;;29.05;14.40;;;;;;;;;;5040019;28;20030;-80
2023/06/20 03:47:48;;;;;;;20.92;14.15;;;;;;;;;;5039888;28;20455;-79
2023/06/20 03:50:14;;;;;;;24.73;14.02;;;;;;;;;;5038907;28;20074;-79
2023/06/20 03:52:39;;;;;;;21.80;14.00;;;;;;;;;;5040238;28;20061;-79
2023/06/20 03:55:05;;;;;;;32.90;14.63;;;;;;;;;;5039746;28;20068;-79
2023/06/20 03:57:31;;;;;;;22.42;13.93;;;;;;;;;;5040106;28;20069;-79
2023/06/20 03:59:56;;;;;;;22.52;13.45;;;;;;;;;;5039888;28;20068;-80
2023/06/20 04:02:22;;;;;;;22.45;13.98;;;;;;;;;;5039541;28;20133;-79
2023/06/20 04:04:50;;;;;;;26.75;14.65;;;;;;;;;;5039733;28;20036;-80
2023/06/20 04:07:18;;;;;;;32.45;14.10;;;;;;;;;;5039786;28;20064;-80
2023/06/20 04:09:49;;;;;;;22.13;14.00;;;;;;;;;;5038408;28;20033;-80
2023/06/20 04:12:14;;;;;;;33.15;15.18;;;;;;;;;;5055143;28;20454;-80
2023/06/20 04:14:40;;;;;;;22.33;14.60;;;;;;;;;;5022087;28;20025;-80
2023/06/20 04:17:05;;;;;;;22.40;14.27;;;;;;;;;;5039752;28;20455;-80
2023/06/20 04:19:32;;;;;;;26.05;14.32;;;;;;;;;;5039861;28;20025;-80
2023/06/20 04:21:58;;;;;;;23.33;14.57;;;;;;;;;;5039602;28;20436;-79
2023/06/20 04:24:24;;;;;;;21.25;14.88;;;;;;;;;;5035909;28;20033;-80
2023/06/20 04:26:49;;;;;;;24.65;14.02;;;;;;;;;;5036542;28;20033;-80
2023/06/20 04:29:15;;;;;;;25.90;13.65;;;;;;;;;;5036567;28;20124;-79
2023/06/20 04:31:41;;;;;;;22.27;14.57;;;;;;;;;;5036410;28;20029;-79
2023/06/20 04:34:06;;;;;;;30.70;15.02;;;;;;;;;;5038470;28;20021;-82
2023/06/20 04:36:34;;;;;;;26.08;14.82;;;;;;;;;;5022380;28;20053;-90
2023/06/20 04:38:59;;;;;;;21.15;14.85;;;;;;;;;;5036468;28;20040;-89
2023/06/20 04:41:25;;;;;;;26.27;14.23;;;;;;;;;;5018796;28;20030;-88
2023/06/20 04:43:50;;;;;;;32.25;15.75;;;;;;;;;;5018973;28;20052;-90
2023/06/20 04:46:16;;;;;;;23.55;14.95;;;;;;;;;;5025767;28;20100;-92
2023/06/20 04:48:41;;;;;;;25.15;14.40;;;;;;;;;;5025103;28;20061;-91
2023/06/20 04:51:08;;;;;;;23.58;14.77;;;;;;;;;;5002332;28;20124;-91
2023/06/20 04:53:34;;;;;;;19.13;14.27;;;;;;;;;;5037677;28;20484;-91
2023/06/20 04:56:00;;;;;;;20.02;14.20;;;;;;;;;;5052897;28;20040;-90
2023/06/20 04:58:28;;;;;;;24.30;14.52;;;;;;;;;;5046729;28;20041;-90
2023/06/20 05:00:57;;;;;;;26.50;14.07;;;;;;;;;;5047804;28;20045;-90
2023/06/20 05:03:28;;;;;;;21.30;14.10;;;;;;;;;;5002620;28;20045;-87
2023/06/20 05:05:54;;;;;;;27.13;14.77;;;;;;;;;;5023741;28;20037;-87
2023/06/20 05:08:20;;;;;;;25.48;13.27;;;;;;;;;;5012599;28;20030;-87
2023/06/20 05:10:46;;;;;;;21.65;14.82;;;;;;;;;;4997305;28;20049;-91
2023/06/20 05:13:11;;;;;;;27.45;13.90;;;;;;;;;;5009437;28;20034;-90
2023/06/20 05:15:37;;;;;;;20.08;13.77;;;;;;;;;;5017408;28;20032;-90
2023/06/20 05:18:06;;;;;;;25.30;13.90;;;;;;;;;;5030961;28;20029;-91
2023/06/20 05:20:31;;;;;;;23.80;13.02;;;;;;;;;;4998162;28;20292;-88
2023/06/20 05:22:57;;;;;;;24.25;12.70;;;;;;;;;;5036407;28;20065;-89
2023/06/20 05:25:24;;;;;;;21.90;13.75;;;;;;;;;;5037782;28;20033;-89
2023/06/20 05:27:49;;;;;;;24.30;13.43;;;;;;;;;;5018976;28;20045;-90
2023/06/20 05:30:14;;;;;;;20.30;13.65;;;;;;;;;;5034327;28;20032;-91
2023/06/20 05:32:40;;;;;;;27.10;13.23;;;;;;;;;;5002018;28;20185;-91
2023/06/20 05:35:07;;;;;;;22.38;13.95;;;;;;;;;;5032755;28;20026;-89
2023/06/20 05:37:33;;;;;;;21.92;13.70;;;;;;;;;;5018098;28;20033;-89
2023/06/20 05:39:59;;;;;;;20.63;13.18;;;;;;;;;;5029175;28;20436;-88
2023/06/20 05:42:24;;;;;;;22.73;13.48;;;;;;;;;;5016964;28;20037;-88
2023/06/20 05:44:50;;;;;;;20.23;13.82;;;;;;;;;;5038588;28;20116;-88
2023/06/20 05:47:18;;;;;;;22.20;13.82;;;;;;;;;;4997320;28;20106;-87
2023/06/20 05:49:49;;;;;;;20.67;12.90;;;;;;;;;;5025790;28;20112;-92
2023/06/20 05:52:15;;;;;;;24.23;15.02;;;;;;;;;;5037250;28;20049;-89
2023/06/20 05:54:43;;;;;;;21.85;14.27;;;;;;;;;;5019019;28;20071;-87
2023/06/20 05:57:08;;;;;;;28.95;13.70;;;;;;;;;;5029549;28;20036;-89
2023/06/20 05:59:34;;;;;;;22.10;13.45;;;;;;;;;;4984185;28;20316;-87
2023/06/20 06:02:00;;;;;;;24.38;13.35;;;;;;;;;;5021377;28;20040;-91
2023/06/20 06:04:25;;;;;;;20.20;12.88;;;;;;;;;;5021529;28;20064;-89
2023/06/20 06:06:51;;;;;;;23.25;13.20;;;;;;;;;;5036060;28;20053;-87
2023/06/20 06:09:17;;;;;;;24.33;13.05;;;;;;;;;;5056129;28;20520;-90
2023/06/20 06:11:43;;;;;;;24.23;13.40;;;;;;;;;;5054094;28;20041;-90
2023/06/20 06:14:10;;;;;;;26.20;14.65;;;;;;;;;;5047888;28;20068;-87
2023/06/20 06:16:35;;;;;;;23.00;13.02;;;;;;;;;;5018794;28;20061;-87
2023/06/20 06:19:02;;;;;;;23.98;13.40;;;;;;;;;;4998829;28;20471;-88
2023/06/20 06:21:33;;;;;;;28.48;13.10;;;;;;;;;;5036567;28;20053;-90
2023/06/20 06:23:59;;;;;;;22.85;13.32;;;;;;;;;;5005680;28;20029;-89
2023/06/20 06:26:26;;;;;;;28.42;12.80;;;;;;;;;;5024348;28;20057;-90
2023/06/20 06:28:53;;;;;;;24.20;13.55;;;;;;;;;;5036977;28;20060;-90
2023/06/20 06:31:26;;;;;;;24.98;13.85;;;;;;;;;;5035100;28;20079;-89
2023/06/20 06:33:52;;;;;;;20.27;13.05;;;;;;;;;;5020070;28;20503;-89
2023/06/20 06:36:18;;;;;;;20.85;13.57;;;;;;;;;;5023141;28;20026;-90
2023/06/20 06:38:49;;;;;;;21.73;13.57;;;;;;;;;;5023774;28;20083;-89
2023/06/20 06:41:18;;;;;;;23.25;12.30;;;;;;;;;;5033098;28;20064;-90
2023/06/20 06:43:44;;;;;;;18.67;12.40;;;;;;;;;;5069356;28;20057;-89
2023/06/20 06:46:10;;;;;;;20.52;12.48;;;;;;;;;;5054370;28;20033;-89
2023/06/20 06:48:35;;;;;;;16.88;11.55;;;;;;;;;;5060600;28;20044;-91
2023/06/20 06:51:03;;;;;;;16.55;11.20;;;;;;;;;;5022890;28;20471;-91
2023/06/20 06:53:28;;;;;;;15.35;9.60;;;;;;;;;;5020283;28;20120;-90
2023/06/20 06:55:54;;;;;;;16.45;10.68;;;;;;;;;;5038272;28;20060;-89
2023/06/20 06:58:20;;;;;;;20.33;10.48;;;;;;;;;;5047141;28;20041;-90
2023/06/20 07:00:45;;;;;;;16.17;10.30;;;;;;;;;;5052507;28;20036;-90
2023/06/20 07:03:11;;;;;;;17.88;10.35;;;;;;;;;;4984983;28;20061;-92
2023/06/20 07:05:37;;;;;;;16.15;11.82;;;;;;;;;;5015873;28;20377;-91
2023/06/20 07:08:02;;;;;;;16.50;10.57;;;;;;;;;;5018659;28;20030;-92
2023/06/20 07:10:28;;;;;;;14.93;10.20;;;;;;;;;;5009493;28;20026;-90
2023/06/20 07:12:54;;;;;;;13.52;9.35;;;;;;;;;;5017659;28;20025;-92
2023/06/20 07:15:19;;;;;;;15.15;9.20;;;;;;;;;;5034537;28;20064;-90
2023/06/20 07:17:45;;;;;;;13.73;9.20;;;;;;;;;;5051337;28;20048;-90
2023/06/20 07:20:11;;;;;;;17.08;9.50;;;;;;;;;;5019380;28;20028;-90
2023/06/20 07:22:37;;;;;;;14.52;9.15;;;;;;;;;;5037103;28;20086;-90
2023/06/20 07:25:03;;;;;;;11.82;9.68;;;;;;;;;;5018592;28;20080;-89
2023/06/20 07:27:29;;;;;;;15.05;9.35;;;;;;;;;;5001831;28;20092;-89
2023/06/20 07:29:57;;;;;;;12.45;9.45;;;;;;;;;;4998618;28;20026;-90
2023/06/20 07:32:24;;;;;;;13.87;10.33;;;;;;;;;;5022031;28;20042;-89
2023/06/20 07:34:51;;;;;;;20.20;10.20;;;;;;;;;;5042705;28;20068;-90
2023/06/20 07:37:17;;;;;;;13.73;9.98;;;;;;;;;;5016555;28;20034;-90
2023/06/20 07:39:46;;;;;;;15.95;10.48;;;;;;;;;;5039123;28;20029;-91
2023/06/20 07:42:12;;;;;;;14.48;10.70;;;;;;;;;;5034606;28;20113;-86
2023/06/20 07:44:37;;;;;;;18.70;10.73;;;;;;;;;;5047642;28;20071;-88
2023/06/20 07:47:03;;;;;;;15.98;10.77;;;;;;;;;;5029157;28;20367;-89
2023/06/20 07:49:28;;;;;;;24.70;9.90;;;;;;;;;;5013986;28;20026;-90
2023/06/20 07:51:54;;;;;;;13.07;9.73;;;;;;;;;;4997320;28;20451;-90
2023/06/20 07:54:23;;;;;;;15.82;10.90;;;;;;;;;;5015502;28;20039;-88
2023/06/20 07:56:51;;;;;;;17.27;10.65;;;;;;;;;;4998382;28;20026;-91
2023/06/20 07:59:17;;;;;;;14.55;9.20;;;;;;;;;;5028164;28;20621;-86
2023/06/20 08:01:43;;;;;;;13.43;10.02;;;;;;;;;;5006809;28;20030;-88
2023/06/20 08:04:09;;;;;;;14.90;10.27;;;;;;;;;;5023394;28;20120;-89
2023/06/20 08:06:34;;;;;;;11.98;9.38;;;;;;;;;;5038292;28;20647;-92
2023/06/20 08:08:59;;;;;;;13.70;9.80;;;;;;;;;;5064074;28;20032;-89
2023/06/20 08:11:25;;;;;;;14.55;9.23;;;;;;;;;;5077266;28;20029;-91
2023/06/20 08:13:50;;;;;;;12.98;9.45;;;;;;;;;;5069086;28;20021;-88
2023/06/20 08:16:16;;;;;;;12.38;8.90;;;;;;;;;;5035669;28;20505;-88
2023/06/20 08:18:41;;;;;;;11.20;9.25;;;;;;;;;;5003232;28;20089;-91
2023/06/20 08:21:07;;;;;;;10.82;9.52;;;;;;;;;;5038620;28;20021;-92
2023/06/20 08:23:33;;;;;;;12.25;9.68;;;;;;;;;;5023054;28;20473;-89
2023/06/20 08:25:58;;;;;;;13.10;8.98;;;;;;;;;;5004240;28;20298;-89
2023/06/20 08:28:24;;;;;;;15.73;9.10;;;;;;;;;;5021979;28;20033;-89
2023/06/20 08:30:49;;;;;;;13.30;9.30;;;;;;;;;;5024210;28;20056;-89
2023/06/20 08:33:17;;;;;;;15.07;8.90;;;;;;;;;;5041608;28;20025;-88
2023/06/20 08:35:42;;;;;;;11.27;8.15;;;;;;;;;;5025581;28;20445;-89
2023/06/20 08:38:09;;;;;;;10.30;8.23;;;;;;;;;;5025990;28;20029;-89
2023/06/20 08:40:34;;;;;;;10.63;8.50;;;;;;;;;;5035574;28;20052;-88
2023/06/20 08:43:01;;;;;;;12.80;8.40;;;;;;;;;;5038424;28;20454;-88
2023/06/20 08:45:27;;;;;;;16.98;8.68;;;;;;;;;;5037203;28;20041;-89
2023/06/20 08:47:59;;;;;;;14.13;8.88;;;;;;;;;;5036499;28;20025;-90
2023/06/20 08:50:27;;;;;;;10.98;8.60;;;;;;;;;;5030997;28;20030;-90
2023/06/20 08:52:56;;;;;;;10.35;8.30;;;;;;;;;;5021641;28;20172;-88
2023/06/20 08:55:22;;;;;;;12.90;9.43;;;;;;;;;;5044046;28;20064;-88
2023/06/20 08:57:47;;;;;;;14.27;8.30;;;;;;;;;;5035543;28;20114;-90
2023/06/20 09:00:22;;;;;;;9.90;8.65;;;;;;;;;;5040807;28;20041;-87
2023/06/20 09:03:04;;;;;;;12.77;8.80;;;;;;;;;;5044547;28;20453;-90
2023/06/20 09:08:24;;;;;;;11.55;7.43;;;;;;;;;;5046424;28;20618;-87
2023/06/20 09:11:05;;;;;;;9.70;7.35;;;;;;;;;;5032500;28;20100;-89
2023/06/20 09:13:31;;;;;;;11.60;7.60;;;;;;;;;;5032260;28;20025;-89
2023/06/20 09:16:09;;;;;;;8.30;6.97;;;;;;;;;;5058697;28;20032;-91
2023/06/20 09:18:35;;;;;;;12.68;7.32;;;;;;;;;;5037153;28;20036;-88
2023/06/20 09:21:04;;;;;;;8.13;7.43;;;;;;;;;;5004741;28;20037;-90
2023/06/20 09:23:30;;;;;;;10.00;7.15;;;;;;;;;;5036763;28;20036;-90
2023/06/20 09:25:57;;;;;;;9.25;7.93;;;;;;;;;;5022983;28;20045;-89
2023/06/20 09:28:22;;;;;;;10.27;6.65;;;;;;;;;;5038401;28;20128;-88
2023/06/20 09:30:48;;;;;;;7.85;6.88;;;;;;;;;;5028538;28;20089;-92
2023/06/20 09:33:14;;;;;;;7.20;6.10;;;;;;;;;;5070876;28;20021;-88
2023/06/20 09:35:40;;;;;;;8.00;6.95;;;;;;;;;;5070813;28;20446;-90
2023/06/20 09:38:06;;;;;;;7.45;6.68;;;;;;;;;;5059938;28;20029;-89
2023/06/20 09:40:41;;;;;;;7.47;6.65;;;;;;;;;;5063177;28;20119;-92
2023/06/20 09:43:07;;;;;;;11.75;7.15;;;;;;;;;;5030470;28;20029;-90
2023/06/20 09:45:33;;;;;;;8.40;6.70;;;;;;;;;;5015805;28;20044;-89
2023/06/20 09:47:58;;;;;;;10.52;6.78;;;;;;;;;;5057143;28;20096;-89
2023/06/20 09:50:25;;;;;;;10.63;7.05;;;;;;;;;;5054885;28;20028;-93
2023/06/20 09:53:24;;;;;;;8.27;6.65;;;;;;;;;;5053601;28;20128;-90
2023/06/20 09:55:53;;;;;;;8.45;7.13;;;;;;;;;;5052530;28;20041;-89
2023/06/20 09:58:19;;;;;;;9.50;7.18;;;;;;;;;;5069364;28;20025;-89
2023/06/20 10:00:44;;;;;;;10.35;7.10;;;;;;;;;;5075644;28;20057;-88
2023/06/20 10:03:10;;;;;;;8.80;6.85;;;;;;;;;;5057437;28;20435;-88
2023/06/20 10:05:36;;;;;;;9.93;6.55;;;;;;;;;;5071020;28;20423;-90
2023/06/20 10:08:01;;;;;;;8.70;6.90;;;;;;;;;;5065267;28;20112;-89
2023/06/20 10:10:27;;;;;;;8.10;6.82;;;;;;;;;;5062936;28;20032;-87
2023/06/20 10:12:52;;;;;;;8.57;7.30;;;;;;;;;;5029474;28;20037;-90
2023/06/20 10:15:18;;;;;;;11.48;6.68;;;;;;;;;;4996426;28;20049;-89
2023/06/20 10:17:46;;;;;;;8.55;6.68;;;;;;;;;;5031692;28;20443;-90
2023/06/20 10:20:37;;;;;;;7.97;6.72;;;;;;;;;;5032892;28;20136;-88
2023/06/20 10:23:05;;;;;;;8.32;6.60;;;;;;;;;;5038881;28;20025;-91
2023/06/20 10:25:31;;;;;;;;;;;;;;;;;;5034026;28;20032;-89
2023/06/20 10:28:01;;;;;;;8.77;7.00;;;;;;;;;;5035113;28;19995;-90
2023/06/20 10:30:49;;;;;;;7.88;6.70;;;;;;;;;;5016342;28;20045;-90
2023/06/20 10:33:17;;;;;;;14.38;6.82;;;;;;;;;;5035095;28;20052;-90
2023/06/20 10:35:49;;;;;;;7.80;6.70;;;;;;;;;;5031402;28;20033;-91
2023/06/20 10:38:15;;;;;;;7.72;6.53;;;;;;;;;;5051706;28;20064;-88
2023/06/20 10:40:40;;;;;;;7.57;6.72;;;;;;;;;;5034359;28;20026;-88
2023/06/20 10:43:09;;;;;;;7.07;6.47;;;;;;;;;;5021407;28;20026;-88
2023/06/20 10:45:34;;;;;;;10.20;6.30;;;;;;;;;;5036881;28;20033;-89
2023/06/20 10:48:02;;;;;;;8.20;6.53;;;;;;;;;;5035224;28;20038;-90
2023/06/20 10:50:27;;;;;;;8.35;6.30;;;;;;;;;;5051050;28;20029;-87
2023/06/20 10:52:58;;;;;;;12.68;6.47;;;;;;;;;;5023471;28;20056;-88
2023/06/20 10:55:29;;;;;;;7.07;6.38;;;;;;;;;;5022028;28;20137;-91
2023/06/20 10:57:55;;;;;;;10.02;6.68;;;;;;;;;;5016551;28;20033;-92
2023/06/20 11:00:21;;;;;;;9.90;6.85;;;;;;;;;;5030825;28;20099;-89
2023/06/20 11:02:53;;;;;;;10.45;6.78;;;;;;;;;;5015014;28;20035;-92
2023/06/20 11:05:22;;;;;;;9.50;6.47;;;;;;;;;;5033697;28;20048;-93
2023/06/20 11:07:51;;;;;;;10.52;6.60;;;;;;;;;;5028994;28;20037;-93
2023/06/20 11:10:20;;;;;;;7.35;6.63;;;;;;;;;;5030079;28;20021;-90
2023/06/20 11:12:45;;;;;;;7.35;6.20;;;;;;;;;;4997506;28;20050;-91
2023/06/20 11:15:29;;;;;;;11.50;6.28;;;;;;;;;;5009088;28;20480;-89
2023/06/20 11:17:56;;;;;;;10.02;6.20;;;;;;;;;;5007645;28;20026;-89
2023/06/20 11:20:23;;;;;;;12.27;7.13;;;;;;;;;;4994774;28;20503;-86
2023/06/20 11:22:48;;;;;;;8.23;6.75;;;;;;;;;;5012008;28;20026;-90
2023/06/20 11:25:41;;;;;;;17.25;13.57;;;;;;;;;;5031666;28;20137;-89
2023/06/20 11:28:07;;;;;;;40.80;35.00;;;;;;;;;;5012124;28;20418;-87
2023/06/20 11:30:34;;;;;;;16.20;13.48;;;;;;;;;;5012980;28;20026;-90
2023/06/20 11:33:00;;;;;;;5.30;4.75;;;;;;;;;;5012375;28;20420;-87
2023/06/20 11:35:58;;;;;;;5.97;5.38;;;;;;;;;;5016668;28;20057;-88
2023/06/20 11:38:27;;;;;;;7.00;6.03;;;;;;;;;;5012016;28;20046;-90
2023/06/20 11:41:06;;;;;;;13.70;11.00;;;;;;;;;;5015258;28;20037;-89
2023/06/20 11:43:35;;;;;;;15.45;13.77;;;;;;;;;;5016356;28;20025;-89
2023/06/20 11:46:01;;;;;;;8.55;6.82;;;;;;;;;;5019846;28;20037;-90
2023/06/20 11:48:27;;;;;;;8.45;6.15;;;;;;;;;;5031249;28;20022;-88
2023/06/20 11:50:56;;;;;;;7.15;6.40;;;;;;;;;;5031603;28;20056;-87
2023/06/20 11:53:24;;;;;;;;;;;;;;;;;;5016524;28;20402;-88
2023/06/20 11:55:54;;;;;;;9.35;7.68;;;;;;;;;;5016276;28;19919;-89
2023/06/20 11:58:20;;;;;;;10.20;7.30;;;;;;;;;;4999104;28;20096;-89
2023/06/20 12:00:47;;;;;;;8.00;6.80;;;;;;;;;;5016371;28;20045;-89
2023/06/20 12:03:21;;;;;;;7.45;6.65;;;;;;;;;;5033422;28;20045;-89
2023/06/20 12:05:46;;;;;;;8.15;6.15;;;;;;;;;;5044076;28;20025;-88
2023/06/20 12:08:14;;;;;;;8.63;5.80;;;;;;;;;;5052258;28;20036;-88
2023/06/20 12:10:59;;;;;;;6.05;5.45;;;;;;;;;;5052058;28;20032;-87
2023/06/20 12:13:25;;;;;;;6.25;5.65;;;;;;;;;;5036027;28;20344;-89
2023/06/20 12:15:52;;;;;;;12.82;6.13;;;;;;;;;;5019446;28;20131;-87
2023/06/20 12:18:17;;;;;;;9.32;5.32;;;;;;;;;;5053095;28;20041;-89
2023/06/20 12:20:44;;;;;;;7.13;5.75;;;;;;;;;;5057001;28;20378;-90
2023/06/20 12:23:10;;;;;;;6.18;5.60;;;;;;;;;;5055156;28;20414;-89
2023/06/20 12:25:35;;;;;;;9.52;5.80;;;;;;;;;;5026449;28;20029;-90
2023/06/20 12:28:01;;;;;;;7.18;5.60;;;;;;;;;;5058124;28;20182;-86
2023/06/20 12:30:27;;;;;;;6.40;5.72;;;;;;;;;;5052207;28;20021;-87
2023/06/20 12:32:55;;;;;;;6.55;5.78;;;;;;;;;;5052099;28;20029;-90
2023/06/20 12:35:21;;;;;;;9.60;5.80;;;;;;;;;;5037059;28;20032;-85
2023/06/20 12:37:46;;;;;;;6.78;5.80;;;;;;;;;;5036675;28;20037;-87
2023/06/20 12:40:13;;;;;;;7.22;6.50;;;;;;;;;;5019031;28;20069;-87
2023/06/20 12:42:39;;;;;;;7.82;6.30;;;;;;;;;;5019146;28;20033;-86
2023/06/20 12:45:06;;;;;;;6.57;5.72;;;;;;;;;;5036602;28;20036;-89
2023/06/20 12:47:31;;;;;;;6.55;5.70;;;;;;;;;;5041097;28;20027;-88
2023/06/20 12:49:59;;;;;;;8.15;6.00;;;;;;;;;;5036571;28;20557;-87
2023/06/20 12:52:25;;;;;;;8.45;6.00;;;;;;;;;;5034748;28;20025;-91
2023/06/20 12:54:51;;;;;;;6.82;6.05;;;;;;;;;;5036873;28;20442;-88
2023/06/20 12:57:16;;;;;;;7.22;6.00;;;;;;;;;;5036165;28;20030;-91
2023/06/20 12:59:41;;;;;;;8.05;5.82;;;;;;;;;;5052088;28;20358;-88
2023/06/20 13:02:08;;;;;;;6.93;6.20;;;;;;;;;;5018797;28;20459;-92
2023/06/20 13:04:34;;;;;;;6.78;6.07;;;;;;;;;;5034718;28;20021;-90
2023/06/20 13:06:59;;;;;;;6.40;5.70;;;;;;;;;;5034293;28;20064;-88
2023/06/20 13:09:24;;;;;;;9.07;6.20;;;;;;;;;;5001902;28;20048;-88
2023/06/20 13:11:50;;;;;;;9.40;6.25;;;;;;;;;;5034355;28;20053;-86
2023/06/20 13:14:17;;;;;;;7.63;6.30;;;;;;;;;;5034475;28;20029;-88
2023/06/20 13:16:43;;;;;;;6.20;5.60;;;;;;;;;;5018265;28;20026;-88
2023/06/20 13:19:08;;;;;;;8.00;5.68;;;;;;;;;;5051027;28;20021;-88
2023/06/20 13:21:34;;;;;;;6.63;5.57;;;;;;;;;;5036263;28;20386;-91
2023/06/20 13:24:00;;;;;;;6.40;5.80;;;;;;;;;;5035277;28;20026;-90
2023/06/20 13:26:25;;;;;;;8.15;5.88;;;;;;;;;;5017962;28;20033;-91
2023/06/20 13:28:50;;;;;;;6.55;5.53;;;;;;;;;;5036581;28;20056;-86
2023/06/20 13:31:16;;;;;;;6.00;5.43;;;;;;;;;;5034354;28;20120;-88
2023/06/20 13:33:41;;;;;;;10.23;5.80;;;;;;;;;;5051130;28;20030;-86
2023/06/20 13:36:07;;;;;;;6.07;5.55;;;;;;;;;;5001716;28;20124;-89
2023/06/20 13:38:33;;;;;;;9.88;5.72;;;;;;;;;;5017960;28;20048;-87
2023/06/20 13:40:59;;;;;;;6.68;5.57;;;;;;;;;;5001318;28;20034;-88
2023/06/20 13:43:24;;;;;;;7.57;6.03;;;;;;;;;;5050564;28;20067;-89
2023/06/20 13:45:49;;;;;;;6.25;5.65;;;;;;;;;;5017617;28;20033;-88
2023/06/20 13:48:15;;;;;;;6.47;5.70;;;;;;;;;;5051442;28;20029;-89
2023/06/20 13:50:40;;;;;;;7.90;6.07;;;;;;;;;;5034529;28;20025;-90
2023/06/20 13:53:06;;;;;;;6.28;5.40;;;;;;;;;;5017434;28;20454;-88
2023/06/20 13:55:32;;;;;;;6.60;5.68;;;;;;;;;;5033842;28;20436;-89
2023/06/20 13:57:57;;;;;;;6.32;5.20;;;;;;;;;;5017622;28;20037;-89
2023/06/20 14:00:23;;;;;;;10.98;5.40;;;;;;;;;;5018050;28;20021;-88
2023/06/20 14:02:48;;;;;;;7.15;5.20;;;;;;;;;;5050222;28;20033;-88
2023/06/20 14:05:14;;;;;;;12.95;5.93;;;;;;;;;;5033883;28;20021;-88
2023/06/20 14:07:40;;;;;;;7.85;5.60;;;;;;;;;;5017458;28;20462;-88
2023/06/20 14:10:06;;;;;;;6.35;5.75;;;;;;;;;;5056874;28;20051;-87
2023/06/20 14:12:31;;;;;;;6.47;5.75;;;;;;;;;;5043755;28;20025;-87
2023/06/20 14:14:58;;;;;;;8.57;6.82;;;;;;;;;;5033409;28;20089;-88
2023/06/20 14:17:24;;;;;;;8.60;7.25;;;;;;;;;;5019292;28;20025;-89
2023/06/20 14:19:49;;;;;;;12.52;6.70;;;;;;;;;;5034544;28;20079;-89
2023/06/20 14:22:16;;;;;;;6.90;5.97;;;;;;;;;;5034759;28;20025;-88
2023/06/20 14:24:41;;;;;;;7.55;6.40;;;;;;;;;;5049920;28;20025;-88
2023/06/20 14:27:07;;;;;;;7.28;6.40;;;;;;;;;;5018154;28;20152;-88
2023/06/20 14:29:33;;;;;;;7.95;6.20;;;;;;;;;;5051745;28;20021;-90
2023/06/20 14:31:58;;;;;;;6.85;6.15;;;;;;;;;;5016752;28;20363;-89